sensor_id;sensor_type;location;lat;lon;timestamp;temperature;humidity
8910;DHT22;4490;49.072;8.804;2023-06-26T00:00:19;19.80;85.60
8910;DHT22;4490;49.072;8.804;2023-06-26T00:02:45;19.80;85.90
8910;DHT22;4490;49.072;8.804;2023-06-26T00:05:11;19.80;86.10
8910;DHT22;4490;49.072;8.804;2023-06-26T00:07:36;19.80;86.40
8910;DHT22;4490;49.072;8.804;2023-06-26T00:10:03;19.70;86.70
8910;DHT22;4490;49.072;8.804;2023-06-26T00:12:29;19.70;86.90
8910;DHT22;4490;49.072;8.804;2023-06-26T00:14:55;19.60;87.20
8910;DHT22;4490;49.072;8.804;2023-06-26T00:17:21;19.60;87.90
8910;DHT22;4490;49.072;8.804;2023-06-26T00:19:47;19.60;88.80
8910;DHT22;4490;49.072;8.804;2023-06-26T00:22:12;19.50;89.10
8910;DHT22;4490;49.072;8.804;2023-06-26T00:24:38;19.50;89.60
8910;DHT22;4490;49.072;8.804;2023-06-26T00:27:04;19.50;90.00
8910;DHT22;4490;49.072;8.804;2023-06-26T00:29:29;19.50;90.30
8910;DHT22;4490;49.072;8.804;2023-06-26T00:31:55;19.40;90.40
8910;DHT22;4490;49.072;8.804;2023-06-26T00:34:20;19.40;90.80
8910;DHT22;4490;49.072;8.804;2023-06-26T00:36:46;19.40;90.90
8910;DHT22;4490;49.072;8.804;2023-06-26T00:39:12;19.30;91.10
8910;DHT22;4490;49.072;8.804;2023-06-26T00:41:38;19.30;91.40
8910;DHT22;4490;49.072;8.804;2023-06-26T00:44:04;19.20;91.90
8910;DHT22;4490;49.072;8.804;2023-06-26T00:46:30;19.10;92.20
8910;DHT22;4490;49.072;8.804;2023-06-26T00:48:58;19.00;93.10
8910;DHT22;4490;49.072;8.804;2023-06-26T00:51:24;19.00;93.40
8910;DHT22;4490;49.072;8.804;2023-06-26T00:53:50;19.00;93.80
8910;DHT22;4490;49.072;8.804;2023-06-26T00:56:18;18.90;94.40
8910;DHT22;4490;49.072;8.804;2023-06-26T00:58:45;18.90;95.00
8910;DHT22;4490;49.072;8.804;2023-06-26T01:01:11;18.80;95.40
8910;DHT22;4490;49.072;8.804;2023-06-26T01:03:41;18.80;96.10
8910;DHT22;4490;49.072;8.804;2023-06-26T01:06:09;18.80;96.30
8910;DHT22;4490;49.072;8.804;2023-06-26T01:08:37;18.80;96.80
8910;DHT22;4490;49.072;8.804;2023-06-26T01:11:03;18.80;96.50
8910;DHT22;4490;49.072;8.804;2023-06-26T01:13:29;18.70;96.70
8910;DHT22;4490;49.072;8.804;2023-06-26T01:15:59;18.70;97.10
8910;DHT22;4490;49.072;8.804;2023-06-26T01:18:26;18.70;97.70
8910;DHT22;4490;49.072;8.804;2023-06-26T01:20:53;18.60;98.10
8910;DHT22;4490;49.072;8.804;2023-06-26T01:23:23;18.50;98.50
8910;DHT22;4490;49.072;8.804;2023-06-26T01:28:34;18.50;99.30
8910;DHT22;4490;49.072;8.804;2023-06-26T01:31:02;18.50;99.90
8910;DHT22;4490;49.072;8.804;2023-06-26T01:33:28;18.40;99.90
8910;DHT22;4490;49.072;8.804;2023-06-26T01:35:53;18.40;99.90
8910;DHT22;4490;49.072;8.804;2023-06-26T01:38:20;18.40;99.90
8910;DHT22;4490;49.072;8.804;2023-06-26T01:40:49;18.30;99.90
8910;DHT22;4490;49.072;8.804;2023-06-26T01:46:29;18.30;99.90
8910;DHT22;4490;49.072;8.804;2023-06-26T01:51:25;18.20;99.90
8910;DHT22;4490;49.072;8.804;2023-06-26T01:53:53;18.20;99.90
8910;DHT22;4490;49.072;8.804;2023-06-26T01:56:22;18.10;99.90
8910;DHT22;4490;49.072;8.804;2023-06-26T01:58:50;18.10;99.90
8910;DHT22;4490;49.072;8.804;2023-06-26T02:01:20;18.10;99.90
8910;DHT22;4490;49.072;8.804;2023-06-26T02:03:47;18.00;99.90
8910;DHT22;4490;49.072;8.804;2023-06-26T02:06:12;18.00;99.90
8910;DHT22;4490;49.072;8.804;2023-06-26T02:08:38;18.00;99.90
8910;DHT22;4490;49.072;8.804;2023-06-26T02:11:04;18.00;99.90
8910;DHT22;4490;49.072;8.804;2023-06-26T02:13:29;18.00;99.90
8910;DHT22;4490;49.072;8.804;2023-06-26T02:15:55;18.00;99.90
8910;DHT22;4490;49.072;8.804;2023-06-26T02:18:20;18.00;99.90
8910;DHT22;4490;49.072;8.804;2023-06-26T02:20:50;17.90;99.90
8910;DHT22;4490;49.072;8.804;2023-06-26T02:23:15;18.00;99.90
8910;DHT22;4490;49.072;8.804;2023-06-26T02:25:41;17.90;99.90
8910;DHT22;4490;49.072;8.804;2023-06-26T02:28:06;17.90;99.90
8910;DHT22;4490;49.072;8.804;2023-06-26T02:30:32;17.90;99.90
8910;DHT22;4490;49.072;8.804;2023-06-26T02:32:58;17.80;99.90
8910;DHT22;4490;49.072;8.804;2023-06-26T02:35:23;17.80;99.90
8910;DHT22;4490;49.072;8.804;2023-06-26T02:37:49;17.80;99.90
8910;DHT22;4490;49.072;8.804;2023-06-26T02:40:14;17.70;99.90
8910;DHT22;4490;49.072;8.804;2023-06-26T02:42:40;17.70;99.90
8910;DHT22;4490;49.072;8.804;2023-06-26T02:45:06;17.60;99.90
8910;DHT22;4490;49.072;8.804;2023-06-26T02:47:32;17.60;99.90
8910;DHT22;4490;49.072;8.804;2023-06-26T02:49:57;17.50;99.90
8910;DHT22;4490;49.072;8.804;2023-06-26T02:52:23;17.50;99.90
8910;DHT22;4490;49.072;8.804;2023-06-26T02:54:48;17.50;99.90
8910;DHT22;4490;49.072;8.804;2023-06-26T02:57:14;17.50;99.90
8910;DHT22;4490;49.072;8.804;2023-06-26T02:59:40;17.50;99.90
8910;DHT22;4490;49.072;8.804;2023-06-26T03:02:06;17.40;99.90
8910;DHT22;4490;49.072;8.804;2023-06-26T03:04:31;17.40;99.90
8910;DHT22;4490;49.072;8.804;2023-06-26T03:06:57;17.40;99.90
8910;DHT22;4490;49.072;8.804;2023-06-26T03:09:23;17.30;99.90
8910;DHT22;4490;49.072;8.804;2023-06-26T03:11:49;17.30;99.90
8910;DHT22;4490;49.072;8.804;2023-06-26T03:14:14;17.30;99.90
8910;DHT22;4490;49.072;8.804;2023-06-26T03:16:40;17.30;99.90
8910;DHT22;4490;49.072;8.804;2023-06-26T03:19:06;17.30;99.90
8910;DHT22;4490;49.072;8.804;2023-06-26T03:21:32;17.20;99.90
8910;DHT22;4490;49.072;8.804;2023-06-26T03:23:58;17.20;99.90
8910;DHT22;4490;49.072;8.804;2023-06-26T03:26:23;17.20;99.90
8910;DHT22;4490;49.072;8.804;2023-06-26T03:28:53;17.20;99.90
8910;DHT22;4490;49.072;8.804;2023-06-26T03:31:19;17.20;99.90
8910;DHT22;4490;49.072;8.804;2023-06-26T03:33:44;17.20;99.90
8910;DHT22;4490;49.072;8.804;2023-06-26T03:36:10;17.10;99.90
8910;DHT22;4490;49.072;8.804;2023-06-26T03:38:36;17.10;99.90
8910;DHT22;4490;49.072;8.804;2023-06-26T03:41:02;17.00;99.90
8910;DHT22;4490;49.072;8.804;2023-06-26T03:43:28;17.00;99.90
8910;DHT22;4490;49.072;8.804;2023-06-26T03:45:53;17.10;99.90
8910;DHT22;4490;49.072;8.804;2023-06-26T03:48:19;17.00;99.90
8910;DHT22;4490;49.072;8.804;2023-06-26T03:50:45;17.00;99.90
8910;DHT22;4490;49.072;8.804;2023-06-26T03:53:11;17.00;99.90
8910;DHT22;4490;49.072;8.804;2023-06-26T03:55:37;17.00;99.90
8910;DHT22;4490;49.072;8.804;2023-06-26T03:58:04;17.00;99.90
8910;DHT22;4490;49.072;8.804;2023-06-26T04:00:30;17.00;99.90
8910;DHT22;4490;49.072;8.804;2023-06-26T04:02:55;17.00;99.90
8910;DHT22;4490;49.072;8.804;2023-06-26T04:05:21;17.00;99.90
8910;DHT22;4490;49.072;8.804;2023-06-26T04:07:50;17.00;99.90
8910;DHT22;4490;49.072;8.804;2023-06-26T04:10:16;17.00;99.90
8910;DHT22;4490;49.072;8.804;2023-06-26T04:12:42;17.00;99.90
8910;DHT22;4490;49.072;8.804;2023-06-26T04:15:08;17.00;99.90
8910;DHT22;4490;49.072;8.804;2023-06-26T04:17:33;17.00;99.90
8910;DHT22;4490;49.072;8.804;2023-06-26T04:19:59;17.00;99.90
8910;DHT22;4490;49.072;8.804;2023-06-26T04:22:25;17.00;99.90
8910;DHT22;4490;49.072;8.804;2023-06-26T04:24:51;17.00;99.90
8910;DHT22;4490;49.072;8.804;2023-06-26T04:27:17;17.00;99.90
8910;DHT22;4490;49.072;8.804;2023-06-26T04:29:43;17.00;99.90
8910;DHT22;4490;49.072;8.804;2023-06-26T04:32:08;17.10;99.90
8910;DHT22;4490;49.072;8.804;2023-06-26T04:34:34;17.10;99.90
8910;DHT22;4490;49.072;8.804;2023-06-26T04:37:01;17.10;99.90
8910;DHT22;4490;49.072;8.804;2023-06-26T04:39:30;17.20;99.90
8910;DHT22;4490;49.072;8.804;2023-06-26T04:41:56;17.20;99.90
8910;DHT22;4490;49.072;8.804;2023-06-26T04:44:21;17.20;99.90
8910;DHT22;4490;49.072;8.804;2023-06-26T04:46:47;17.30;99.90
8910;DHT22;4490;49.072;8.804;2023-06-26T04:49:12;17.30;99.90
8910;DHT22;4490;49.072;8.804;2023-06-26T04:51:38;17.30;99.90
8910;DHT22;4490;49.072;8.804;2023-06-26T04:54:10;17.40;99.90
8910;DHT22;4490;49.072;8.804;2023-06-26T04:56:36;17.40;99.90
8910;DHT22;4490;49.072;8.804;2023-06-26T04:59:02;17.40;99.90
8910;DHT22;4490;49.072;8.804;2023-06-26T05:01:28;17.40;99.90
8910;DHT22;4490;49.072;8.804;2023-06-26T05:03:58;17.50;99.90
8910;DHT22;4490;49.072;8.804;2023-06-26T05:06:24;17.60;99.90
8910;DHT22;4490;49.072;8.804;2023-06-26T05:08:50;17.60;99.90
8910;DHT22;4490;49.072;8.804;2023-06-26T05:11:15;17.60;99.90
8910;DHT22;4490;49.072;8.804;2023-06-26T05:13:41;17.70;99.90
8910;DHT22;4490;49.072;8.804;2023-06-26T05:16:08;17.80;99.90
8910;DHT22;4490;49.072;8.804;2023-06-26T05:18:34;17.80;99.90
8910;DHT22;4490;49.072;8.804;2023-06-26T05:21:01;17.90;99.90
8910;DHT22;4490;49.072;8.804;2023-06-26T05:23:27;18.00;99.90
8910;DHT22;4490;49.072;8.804;2023-06-26T05:25:53;18.00;99.90
8910;DHT22;4490;49.072;8.804;2023-06-26T05:28:19;18.10;99.90
8910;DHT22;4490;49.072;8.804;2023-06-26T05:30:45;18.10;99.90
8910;DHT22;4490;49.072;8.804;2023-06-26T05:33:13;18.20;99.90
8910;DHT22;4490;49.072;8.804;2023-06-26T05:35:41;18.30;99.90
8910;DHT22;4490;49.072;8.804;2023-06-26T05:38:08;18.40;99.90
8910;DHT22;4490;49.072;8.804;2023-06-26T05:40:33;18.50;99.90
8910;DHT22;4490;49.072;8.804;2023-06-26T05:43:00;18.60;99.90
8910;DHT22;4490;49.072;8.804;2023-06-26T05:45:25;18.70;99.90
8910;DHT22;4490;49.072;8.804;2023-06-26T05:47:51;18.80;99.90
8910;DHT22;4490;49.072;8.804;2023-06-26T05:50:18;18.90;99.90
8910;DHT22;4490;49.072;8.804;2023-06-26T05:52:44;19.00;99.90
8910;DHT22;4490;49.072;8.804;2023-06-26T05:55:10;19.20;99.90
8910;DHT22;4490;49.072;8.804;2023-06-26T05:57:37;19.40;99.90
8910;DHT22;4490;49.072;8.804;2023-06-26T06:00:03;19.70;99.90
8910;DHT22;4490;49.072;8.804;2023-06-26T06:02:31;20.00;99.90
8910;DHT22;4490;49.072;8.804;2023-06-26T06:04:56;20.40;99.90
8910;DHT22;4490;49.072;8.804;2023-06-26T06:07:22;20.80;99.90
8910;DHT22;4490;49.072;8.804;2023-06-26T06:09:47;21.10;99.90
8910;DHT22;4490;49.072;8.804;2023-06-26T06:12:13;21.40;98.20
8910;DHT22;4490;49.072;8.804;2023-06-26T06:14:39;21.60;97.60
8910;DHT22;4490;49.072;8.804;2023-06-26T06:17:04;21.70;97.80
8910;DHT22;4490;49.072;8.804;2023-06-26T06:19:30;21.90;97.40
8910;DHT22;4490;49.072;8.804;2023-06-26T06:21:55;22.10;95.90
8910;DHT22;4490;49.072;8.804;2023-06-26T06:24:21;22.30;95.00
8910;DHT22;4490;49.072;8.804;2023-06-26T06:26:46;22.40;94.30
8910;DHT22;4490;49.072;8.804;2023-06-26T06:29:12;22.60;92.80
8910;DHT22;4490;49.072;8.804;2023-06-26T06:31:38;22.80;91.00
8910;DHT22;4490;49.072;8.804;2023-06-26T06:34:03;22.80;90.10
8910;DHT22;4490;49.072;8.804;2023-06-26T06:36:29;22.90;88.50
8910;DHT22;4490;49.072;8.804;2023-06-26T06:38:54;23.00;87.50
8910;DHT22;4490;49.072;8.804;2023-06-26T06:41:20;23.10;87.20
8910;DHT22;4490;49.072;8.804;2023-06-26T06:43:46;23.20;86.30
8910;DHT22;4490;49.072;8.804;2023-06-26T06:46:12;23.20;85.00
8910;DHT22;4490;49.072;8.804;2023-06-26T06:48:37;23.20;84.40
8910;DHT22;4490;49.072;8.804;2023-06-26T06:51:03;23.30;85.70
8910;DHT22;4490;49.072;8.804;2023-06-26T06:53:29;23.50;84.90
8910;DHT22;4490;49.072;8.804;2023-06-26T06:55:55;23.60;84.40
8910;DHT22;4490;49.072;8.804;2023-06-26T06:58:21;23.80;84.10
8910;DHT22;4490;49.072;8.804;2023-06-26T07:00:48;24.00;83.90
8910;DHT22;4490;49.072;8.804;2023-06-26T07:03:13;24.20;82.70
8910;DHT22;4490;49.072;8.804;2023-06-26T07:05:41;24.30;81.00
8910;DHT22;4490;49.072;8.804;2023-06-26T07:08:07;24.40;80.30
8910;DHT22;4490;49.072;8.804;2023-06-26T07:10:32;24.60;80.20
8910;DHT22;4490;49.072;8.804;2023-06-26T07:12:58;24.70;79.80
8910;DHT22;4490;49.072;8.804;2023-06-26T07:15:24;24.90;79.70
8910;DHT22;4490;49.072;8.804;2023-06-26T07:17:49;25.10;79.10
8910;DHT22;4490;49.072;8.804;2023-06-26T07:20:15;25.30;78.20
8910;DHT22;4490;49.072;8.804;2023-06-26T07:22:42;25.50;76.10
8910;DHT22;4490;49.072;8.804;2023-06-26T07:25:08;25.50;76.40
8910;DHT22;4490;49.072;8.804;2023-06-26T07:27:35;25.70;76.50
8910;DHT22;4490;49.072;8.804;2023-06-26T07:30:01;25.90;75.20
8910;DHT22;4490;49.072;8.804;2023-06-26T07:32:27;26.00;74.60
8910;DHT22;4490;49.072;8.804;2023-06-26T07:34:52;26.20;74.20
8910;DHT22;4490;49.072;8.804;2023-06-26T07:37:18;26.30;73.30
8910;DHT22;4490;49.072;8.804;2023-06-26T07:39:44;26.40;71.60
8910;DHT22;4490;49.072;8.804;2023-06-26T07:42:09;26.60;71.50
8910;DHT22;4490;49.072;8.804;2023-06-26T07:44:35;26.70;71.30
8910;DHT22;4490;49.072;8.804;2023-06-26T07:47:00;26.90;71.40
8910;DHT22;4490;49.072;8.804;2023-06-26T07:49:26;27.00;70.40
8910;DHT22;4490;49.072;8.804;2023-06-26T07:51:52;27.20;69.60
8910;DHT22;4490;49.072;8.804;2023-06-26T07:54:17;27.30;69.10
8910;DHT22;4490;49.072;8.804;2023-06-26T07:59:20;27.60;67.40
8910;DHT22;4490;49.072;8.804;2023-06-26T08:01:46;27.70;67.50
8910;DHT22;4490;49.072;8.804;2023-06-26T08:04:12;27.80;66.40
8910;DHT22;4490;49.072;8.804;2023-06-26T08:06:37;27.90;66.30
8910;DHT22;4490;49.072;8.804;2023-06-26T08:09:08;28.00;65.70
8910;DHT22;4490;49.072;8.804;2023-06-26T08:11:34;28.10;65.90
8910;DHT22;4490;49.072;8.804;2023-06-26T08:14:00;28.20;65.50
8910;DHT22;4490;49.072;8.804;2023-06-26T08:16:25;28.30;65.40
8910;DHT22;4490;49.072;8.804;2023-06-26T08:18:51;28.50;65.00
8910;DHT22;4490;49.072;8.804;2023-06-26T08:21:17;28.50;64.80
8910;DHT22;4490;49.072;8.804;2023-06-26T08:23:42;28.60;64.60
8910;DHT22;4490;49.072;8.804;2023-06-26T08:26:08;28.70;63.80
8910;DHT22;4490;49.072;8.804;2023-06-26T08:28:34;28.90;63.70
8910;DHT22;4490;49.072;8.804;2023-06-26T08:30:59;29.00;63.30
8910;DHT22;4490;49.072;8.804;2023-06-26T08:33:25;29.00;63.20
8910;DHT22;4490;49.072;8.804;2023-06-26T08:35:51;29.10;62.90
8910;DHT22;4490;49.072;8.804;2023-06-26T08:38:16;29.20;63.00
8910;DHT22;4490;49.072;8.804;2023-06-26T08:40:42;29.40;63.50
8910;DHT22;4490;49.072;8.804;2023-06-26T08:43:08;29.50;62.80
8910;DHT22;4490;49.072;8.804;2023-06-26T08:45:33;29.50;62.30
8910;DHT22;4490;49.072;8.804;2023-06-26T08:48:00;29.60;61.50
8910;DHT22;4490;49.072;8.804;2023-06-26T08:50:30;29.70;61.60
8910;DHT22;4490;49.072;8.804;2023-06-26T08:53:13;29.90;61.90
8910;DHT22;4490;49.072;8.804;2023-06-26T08:55:43;29.90;61.10
8910;DHT22;4490;49.072;8.804;2023-06-26T08:58:10;30.00;61.90
8910;DHT22;4490;49.072;8.804;2023-06-26T09:00:37;30.00;61.50
8910;DHT22;4490;49.072;8.804;2023-06-26T09:03:03;30.10;60.90
8910;DHT22;4490;49.072;8.804;2023-06-26T09:05:29;30.20;60.30
8910;DHT22;4490;49.072;8.804;2023-06-26T09:07:57;30.20;60.70
8910;DHT22;4490;49.072;8.804;2023-06-26T09:10:22;30.30;60.80
8910;DHT22;4490;49.072;8.804;2023-06-26T09:12:48;30.30;60.80
8910;DHT22;4490;49.072;8.804;2023-06-26T09:15:15;30.50;60.80
8910;DHT22;4490;49.072;8.804;2023-06-26T09:17:42;30.60;60.40
8910;DHT22;4490;49.072;8.804;2023-06-26T09:20:08;30.60;60.40
8910;DHT22;4490;49.072;8.804;2023-06-26T09:22:37;30.50;60.90
8910;DHT22;4490;49.072;8.804;2023-06-26T09:25:06;30.60;61.20
8910;DHT22;4490;49.072;8.804;2023-06-26T09:27:33;30.70;61.50
8910;DHT22;4490;49.072;8.804;2023-06-26T09:29:59;30.80;62.00
8910;DHT22;4490;49.072;8.804;2023-06-26T09:32:25;30.70;60.50
8910;DHT22;4490;49.072;8.804;2023-06-26T09:34:52;30.60;60.30
8910;DHT22;4490;49.072;8.804;2023-06-26T09:37:18;30.50;60.60
8910;DHT22;4490;49.072;8.804;2023-06-26T09:39:44;30.40;60.90
8910;DHT22;4490;49.072;8.804;2023-06-26T09:42:09;30.30;61.30
8910;DHT22;4490;49.072;8.804;2023-06-26T09:44:35;30.20;61.50
8910;DHT22;4490;49.072;8.804;2023-06-26T09:47:02;30.20;61.60
8910;DHT22;4490;49.072;8.804;2023-06-26T09:49:29;30.10;61.60
8910;DHT22;4490;49.072;8.804;2023-06-26T09:51:55;30.10;61.80
8910;DHT22;4490;49.072;8.804;2023-06-26T09:54:21;30.10;62.20
8910;DHT22;4490;49.072;8.804;2023-06-26T09:56:49;30.10;62.50
8910;DHT22;4490;49.072;8.804;2023-06-26T09:59:15;30.10;62.50
8910;DHT22;4490;49.072;8.804;2023-06-26T10:01:43;30.20;63.00
8910;DHT22;4490;49.072;8.804;2023-06-26T10:04:10;30.20;62.70
8910;DHT22;4490;49.072;8.804;2023-06-26T10:06:45;30.30;62.20
8910;DHT22;4490;49.072;8.804;2023-06-26T10:09:12;30.60;62.20
8910;DHT22;4490;49.072;8.804;2023-06-26T10:12:02;30.70;62.90
8910;DHT22;4490;49.072;8.804;2023-06-26T10:14:37;30.90;62.30
8910;DHT22;4490;49.072;8.804;2023-06-26T10:17:10;31.00;61.80
8910;DHT22;4490;49.072;8.804;2023-06-26T10:19:38;31.00;61.30
8910;DHT22;4490;49.072;8.804;2023-06-26T10:22:05;30.90;61.00
8910;DHT22;4490;49.072;8.804;2023-06-26T10:24:33;30.70;60.90
8910;DHT22;4490;49.072;8.804;2023-06-26T10:27:04;30.60;61.90
8910;DHT22;4490;49.072;8.804;2023-06-26T10:29:32;30.70;62.50
8910;DHT22;4490;49.072;8.804;2023-06-26T10:32:00;30.90;62.40
8910;DHT22;4490;49.072;8.804;2023-06-26T10:34:28;31.10;61.90
8910;DHT22;4490;49.072;8.804;2023-06-26T10:37:03;31.30;61.70
8910;DHT22;4490;49.072;8.804;2023-06-26T10:39:53;31.50;61.30
8910;DHT22;4490;49.072;8.804;2023-06-26T10:42:35;31.60;61.30
8910;DHT22;4490;49.072;8.804;2023-06-26T10:45:14;31.80;60.40
8910;DHT22;4490;49.072;8.804;2023-06-26T10:47:41;31.80;60.10
8910;DHT22;4490;49.072;8.804;2023-06-26T10:50:24;31.70;60.20
8910;DHT22;4490;49.072;8.804;2023-06-26T10:55:33;31.50;60.80
8910;DHT22;4490;49.072;8.804;2023-06-26T10:57:58;31.40;61.20
8910;DHT22;4490;49.072;8.804;2023-06-26T11:00:24;31.50;61.70
8910;DHT22;4490;49.072;8.804;2023-06-26T11:02:51;31.60;61.70
8910;DHT22;4490;49.072;8.804;2023-06-26T11:05:29;31.80;61.90
8910;DHT22;4490;49.072;8.804;2023-06-26T11:10:48;32.20;61.00
8910;DHT22;4490;49.072;8.804;2023-06-26T11:13:17;32.30;59.90
8910;DHT22;4490;49.072;8.804;2023-06-26T11:15:43;32.20;60.70
8910;DHT22;4490;49.072;8.804;2023-06-26T11:18:12;32.20;60.90
8910;DHT22;4490;49.072;8.804;2023-06-26T11:20:38;32.30;61.20
8910;DHT22;4490;49.072;8.804;2023-06-26T11:23:04;32.30;60.30
8910;DHT22;4490;49.072;8.804;2023-06-26T11:25:35;32.30;60.00
8910;DHT22;4490;49.072;8.804;2023-06-26T11:28:01;32.30;60.70
8910;DHT22;4490;49.072;8.804;2023-06-26T11:30:26;32.10;60.10
8910;DHT22;4490;49.072;8.804;2023-06-26T11:32:52;31.90;60.30
8910;DHT22;4490;49.072;8.804;2023-06-26T11:35:25;31.80;60.50
8910;DHT22;4490;49.072;8.804;2023-06-26T11:37:59;31.80;62.10
8910;DHT22;4490;49.072;8.804;2023-06-26T11:40:27;31.90;61.20
8910;DHT22;4490;49.072;8.804;2023-06-26T11:42:56;31.90;60.80
8910;DHT22;4490;49.072;8.804;2023-06-26T11:45:22;31.80;60.80
8910;DHT22;4490;49.072;8.804;2023-06-26T11:47:48;31.90;61.10
8910;DHT22;4490;49.072;8.804;2023-06-26T11:50:15;32.00;60.60
8910;DHT22;4490;49.072;8.804;2023-06-26T11:52:44;32.10;60.00
8910;DHT22;4490;49.072;8.804;2023-06-26T11:55:10;32.30;60.00
8910;DHT22;4490;49.072;8.804;2023-06-26T11:57:37;32.50;59.70
8910;DHT22;4490;49.072;8.804;2023-06-26T12:00:16;32.70;59.10
8910;DHT22;4490;49.072;8.804;2023-06-26T12:02:44;32.90;58.90
8910;DHT22;4490;49.072;8.804;2023-06-26T12:05:10;33.00;58.70
8910;DHT22;4490;49.072;8.804;2023-06-26T12:07:35;33.20;59.00
8910;DHT22;4490;49.072;8.804;2023-06-26T12:10:02;33.30;58.40
8910;DHT22;4490;49.072;8.804;2023-06-26T12:12:30;33.50;58.30
8910;DHT22;4490;49.072;8.804;2023-06-26T12:14:57;33.60;57.70
8910;DHT22;4490;49.072;8.804;2023-06-26T12:17:23;33.70;56.90
8910;DHT22;4490;49.072;8.804;2023-06-26T12:19:50;33.70;56.80
8910;DHT22;4490;49.072;8.804;2023-06-26T12:22:17;33.80;56.70
8910;DHT22;4490;49.072;8.804;2023-06-26T12:24:44;33.90;56.50
8910;DHT22;4490;49.072;8.804;2023-06-26T12:27:12;33.90;56.40
8910;DHT22;4490;49.072;8.804;2023-06-26T12:29:39;34.00;55.80
8910;DHT22;4490;49.072;8.804;2023-06-26T12:32:08;34.10;55.20
8910;DHT22;4490;49.072;8.804;2023-06-26T12:34:36;34.20;55.10
8910;DHT22;4490;49.072;8.804;2023-06-26T12:37:05;34.30;54.70
8910;DHT22;4490;49.072;8.804;2023-06-26T12:39:57;34.00;54.60
8910;DHT22;4490;49.072;8.804;2023-06-26T12:42:26;33.90;53.70
8910;DHT22;4490;49.072;8.804;2023-06-26T12:44:53;33.90;53.90
8910;DHT22;4490;49.072;8.804;2023-06-26T12:47:26;34.00;53.90
8910;DHT22;4490;49.072;8.804;2023-06-26T12:49:52;34.10;53.50
8910;DHT22;4490;49.072;8.804;2023-06-26T12:52:18;34.10;53.10
8910;DHT22;4490;49.072;8.804;2023-06-26T12:54:45;34.10;53.00
8910;DHT22;4490;49.072;8.804;2023-06-26T12:57:12;34.20;53.10
8910;DHT22;4490;49.072;8.804;2023-06-26T12:59:41;34.30;52.40
8910;DHT22;4490;49.072;8.804;2023-06-26T13:02:08;34.30;52.30
8910;DHT22;4490;49.072;8.804;2023-06-26T13:04:33;34.10;51.60
8910;DHT22;4490;49.072;8.804;2023-06-26T13:06:59;34.10;51.90
8910;DHT22;4490;49.072;8.804;2023-06-26T13:09:25;34.00;51.80
8910;DHT22;4490;49.072;8.804;2023-06-26T13:11:52;34.00;51.10
8910;DHT22;4490;49.072;8.804;2023-06-26T13:14:18;33.90;51.00
8910;DHT22;4490;49.072;8.804;2023-06-26T13:16:44;33.90;51.00
8910;DHT22;4490;49.072;8.804;2023-06-26T13:19:09;33.80;51.30
8910;DHT22;4490;49.072;8.804;2023-06-26T13:21:35;33.70;50.90
8910;DHT22;4490;49.072;8.804;2023-06-26T13:24:02;33.60;50.50
8910;DHT22;4490;49.072;8.804;2023-06-26T13:26:29;33.50;50.50
8910;DHT22;4490;49.072;8.804;2023-06-26T13:28:55;33.50;50.50
8910;DHT22;4490;49.072;8.804;2023-06-26T13:31:21;33.50;50.50
8910;DHT22;4490;49.072;8.804;2023-06-26T13:33:47;33.40;50.70
8910;DHT22;4490;49.072;8.804;2023-06-26T13:36:18;33.30;50.70
8910;DHT22;4490;49.072;8.804;2023-06-26T13:38:43;33.30;51.20
8910;DHT22;4490;49.072;8.804;2023-06-26T13:41:10;33.40;50.80
8910;DHT22;4490;49.072;8.804;2023-06-26T13:43:36;33.50;50.50
8910;DHT22;4490;49.072;8.804;2023-06-26T13:46:02;33.50;50.60
8910;DHT22;4490;49.072;8.804;2023-06-26T13:48:28;33.50;50.20
8910;DHT22;4490;49.072;8.804;2023-06-26T13:50:54;33.40;50.30
8910;DHT22;4490;49.072;8.804;2023-06-26T13:53:21;33.30;50.10
8910;DHT22;4490;49.072;8.804;2023-06-26T13:55:47;33.20;50.00
8910;DHT22;4490;49.072;8.804;2023-06-26T13:58:13;33.10;50.90
8910;DHT22;4490;49.072;8.804;2023-06-26T14:00:39;33.00;50.20
8910;DHT22;4490;49.072;8.804;2023-06-26T14:03:05;32.90;50.40
8910;DHT22;4490;49.072;8.804;2023-06-26T14:05:35;32.80;50.20
8910;DHT22;4490;49.072;8.804;2023-06-26T14:08:06;32.80;50.70
8910;DHT22;4490;49.072;8.804;2023-06-26T14:10:32;32.80;50.10
8910;DHT22;4490;49.072;8.804;2023-06-26T14:13:01;32.70;50.20
8910;DHT22;4490;49.072;8.804;2023-06-26T14:15:28;32.60;50.70
8910;DHT22;4490;49.072;8.804;2023-06-26T14:17:54;32.60;51.70
8910;DHT22;4490;49.072;8.804;2023-06-26T14:20:21;32.70;50.70
8910;DHT22;4490;49.072;8.804;2023-06-26T14:22:48;32.60;51.40
8910;DHT22;4490;49.072;8.804;2023-06-26T14:25:14;32.60;50.90
8910;DHT22;4490;49.072;8.804;2023-06-26T14:27:40;32.60;50.60
8910;DHT22;4490;49.072;8.804;2023-06-26T14:30:07;32.60;50.60
8910;DHT22;4490;49.072;8.804;2023-06-26T14:32:33;32.50;50.70
8910;DHT22;4490;49.072;8.804;2023-06-26T14:34:59;32.50;50.80
8910;DHT22;4490;49.072;8.804;2023-06-26T14:37:29;32.40;51.00
8910;DHT22;4490;49.072;8.804;2023-06-26T14:39:55;32.30;51.10
8910;DHT22;4490;49.072;8.804;2023-06-26T14:42:21;32.20;51.00
8910;DHT22;4490;49.072;8.804;2023-06-26T14:44:46;32.20;50.90
8910;DHT22;4490;49.072;8.804;2023-06-26T14:47:16;32.10;50.80
8910;DHT22;4490;49.072;8.804;2023-06-26T14:49:42;31.80;51.10
8910;DHT22;4490;49.072;8.804;2023-06-26T14:52:07;31.70;51.20
8910;DHT22;4490;49.072;8.804;2023-06-26T14:54:34;31.50;51.10
8910;DHT22;4490;49.072;8.804;2023-06-26T14:57:02;31.30;52.20
8910;DHT22;4490;49.072;8.804;2023-06-26T14:59:28;31.30;52.00
8910;DHT22;4490;49.072;8.804;2023-06-26T15:01:54;31.20;51.60
8910;DHT22;4490;49.072;8.804;2023-06-26T15:04:19;31.10;51.90
8910;DHT22;4490;49.072;8.804;2023-06-26T15:06:45;31.10;51.90
8910;DHT22;4490;49.072;8.804;2023-06-26T15:09:10;31.10;51.60
8910;DHT22;4490;49.072;8.804;2023-06-26T15:11:36;31.00;51.40
8910;DHT22;4490;49.072;8.804;2023-06-26T15:14:03;31.00;51.10
8910;DHT22;4490;49.072;8.804;2023-06-26T15:16:29;31.00;51.00
8910;DHT22;4490;49.072;8.804;2023-06-26T15:18:54;31.00;50.30
8910;DHT22;4490;49.072;8.804;2023-06-26T15:21:20;31.00;49.80
8910;DHT22;4490;49.072;8.804;2023-06-26T15:23:47;31.00;49.70
8910;DHT22;4490;49.072;8.804;2023-06-26T15:26:12;31.00;49.20
8910;DHT22;4490;49.072;8.804;2023-06-26T15:28:39;31.00;48.70
8910;DHT22;4490;49.072;8.804;2023-06-26T15:31:04;31.00;48.40
8910;DHT22;4490;49.072;8.804;2023-06-26T15:33:30;30.90;48.20
8910;DHT22;4490;49.072;8.804;2023-06-26T15:35:56;30.90;47.60
8910;DHT22;4490;49.072;8.804;2023-06-26T15:38:21;30.80;46.90
8910;DHT22;4490;49.072;8.804;2023-06-26T15:40:47;30.80;46.70
8910;DHT22;4490;49.072;8.804;2023-06-26T15:43:13;30.70;46.40
8910;DHT22;4490;49.072;8.804;2023-06-26T15:45:38;30.60;45.20
8910;DHT22;4490;49.072;8.804;2023-06-26T15:48:04;30.60;45.00
8910;DHT22;4490;49.072;8.804;2023-06-26T15:50:30;30.60;45.10
8910;DHT22;4490;49.072;8.804;2023-06-26T15:52:56;30.50;44.50
8910;DHT22;4490;49.072;8.804;2023-06-26T15:55:21;30.50;44.00
8910;DHT22;4490;49.072;8.804;2023-06-26T15:57:47;30.50;43.80
8910;DHT22;4490;49.072;8.804;2023-06-26T16:00:13;30.50;43.30
8910;DHT22;4490;49.072;8.804;2023-06-26T16:02:39;30.50;42.50
8910;DHT22;4490;49.072;8.804;2023-06-26T16:05:05;30.50;42.70
8910;DHT22;4490;49.072;8.804;2023-06-26T16:07:31;30.50;42.20
8910;DHT22;4490;49.072;8.804;2023-06-26T16:09:57;30.50;42.20
8910;DHT22;4490;49.072;8.804;2023-06-26T16:12:22;30.40;42.00
8910;DHT22;4490;49.072;8.804;2023-06-26T16:14:48;30.40;42.60